createdAt,value
2023-01-07T00:00:38.576Z,10.18
2023-01-07T00:01:39.361Z,10.22
2023-01-07T00:02:40.052Z,10.22
2023-01-07T00:03:40.796Z,10.20
2023-01-07T00:04:41.441Z,10.20
2023-01-07T00:05:42.144Z,10.22
2023-01-07T00:06:42.876Z,10.23
2023-01-07T00:07:43.549Z,10.23
2023-01-07T00:08:44.264Z,10.22
2023-01-07T00:09:44.967Z,10.20
2023-01-07T00:10:45.673Z,10.26
2023-01-07T00:11:46.374Z,10.25
2023-01-07T00:12:47.094Z,10.26
2023-01-07T00:13:47.878Z,10.26
2023-01-07T00:14:48.581Z,10.26
2023-01-07T00:15:49.340Z,10.29
2023-01-07T00:16:50.102Z,10.27
2023-01-07T00:17:50.729Z,10.25
2023-01-07T00:18:51.546Z,10.27
2023-01-07T00:19:52.195Z,10.26
2023-01-07T00:20:52.888Z,10.27
2023-01-07T00:21:53.587Z,10.26
2023-01-07T00:22:54.293Z,10.26
2023-01-07T00:23:55.004Z,10.23
2023-01-07T00:24:55.706Z,10.27
2023-01-07T00:25:56.413Z,10.27
2023-01-07T00:26:57.135Z,10.27
2023-01-07T00:27:57.824Z,10.32
2023-01-07T00:28:58.563Z,10.32
2023-01-07T00:29:59.278Z,10.30
2023-01-07T00:31:00.038Z,10.27
2023-01-07T00:32:00.816Z,10.26
2023-01-07T00:33:01.448Z,10.27
2023-01-07T00:34:02.195Z,10.25
2023-01-07T00:35:02.865Z,10.29
2023-01-07T00:36:03.579Z,10.29
2023-01-07T00:37:04.279Z,10.29
2023-01-07T00:38:04.982Z,10.30
2023-01-07T00:39:05.693Z,10.33
2023-01-07T00:40:06.401Z,10.32
2023-01-07T00:41:07.110Z,10.34
2023-01-07T00:42:07.821Z,10.36
2023-01-07T00:43:08.517Z,10.33
2023-01-07T00:44:09.245Z,10.33
2023-01-07T00:45:09.943Z,10.34
2023-01-07T00:46:10.701Z,10.33
2023-01-07T00:47:11.476Z,10.36
2023-01-07T00:48:12.112Z,10.33
2023-01-07T00:49:12.899Z,10.36
2023-01-07T00:50:13.557Z,10.38
2023-01-07T00:51:14.294Z,10.38
2023-01-07T00:52:14.961Z,10.38
2023-01-07T00:53:15.669Z,10.38
2023-01-07T00:54:16.385Z,10.38
2023-01-07T00:55:17.083Z,10.36
2023-01-07T00:56:17.789Z,10.34
2023-01-07T00:57:18.505Z,10.36
2023-01-07T00:58:19.212Z,10.34
2023-01-07T00:59:20.376Z,10.33
2023-01-07T01:00:20.593Z,10.33
2023-01-07T01:01:21.444Z,10.34
2023-01-07T01:02:22.291Z,10.33
2023-01-07T01:03:22.950Z,10.36
2023-01-07T01:04:23.687Z,10.34
2023-01-07T01:05:24.361Z,10.36
2023-01-07T01:06:25.065Z,10.34
2023-01-07T01:07:25.772Z,10.38
2023-01-07T01:08:26.476Z,10.34
2023-01-07T01:09:27.380Z,10.36
2023-01-07T01:10:28.085Z,10.41
2023-01-07T01:11:28.801Z,10.38
2023-01-07T01:12:29.500Z,10.34
2023-01-07T01:13:30.213Z,10.36
2023-01-07T01:14:30.915Z,10.34
2023-01-07T01:15:31.624Z,10.36
2023-01-07T01:16:32.373Z,10.40
2023-01-07T01:17:33.151Z,10.41
2023-01-07T01:18:33.796Z,10.42
2023-01-07T01:19:34.522Z,10.42
2023-01-07T01:20:35.180Z,10.40
2023-01-07T01:21:35.903Z,10.40
2023-01-07T01:22:36.580Z,10.44
2023-01-07T01:23:37.289Z,10.42
2023-01-07T01:24:38.008Z,10.42
2023-01-07T01:25:38.710Z,10.42
2023-01-07T01:26:39.419Z,10.42
2023-01-07T01:27:40.137Z,10.44
2023-01-07T01:28:40.827Z,10.42
2023-01-07T01:29:41.901Z,10.42
2023-01-07T01:30:42.114Z,10.47
2023-01-07T01:31:42.927Z,10.47
2023-01-07T01:32:43.730Z,10.48
2023-01-07T01:33:44.366Z,10.47
2023-01-07T01:34:45.139Z,10.52
2023-01-07T01:35:45.797Z,10.52
2023-01-07T01:36:46.485Z,10.51
2023-01-07T01:37:47.189Z,10.47
2023-01-07T01:38:47.894Z,10.51
2023-01-07T01:39:48.884Z,10.47
2023-01-07T01:40:49.588Z,10.45
2023-01-07T01:41:50.301Z,10.48
2023-01-07T01:42:51.004Z,10.47
2023-01-07T01:43:51.725Z,10.47
2023-01-07T01:44:52.426Z,10.51
2023-01-07T01:45:53.139Z,10.53
2023-01-07T01:46:53.880Z,10.55
2023-01-07T01:47:54.649Z,10.56
2023-01-07T01:48:55.284Z,10.59
2023-01-07T01:49:56.018Z,10.59
2023-01-07T01:50:56.666Z,10.59
2023-01-07T01:51:57.368Z,10.60
2023-01-07T01:52:58.080Z,10.60
2023-01-07T01:53:58.797Z,10.55
2023-01-07T01:54:59.493Z,10.55
2023-01-07T01:56:00.214Z,10.56
2023-01-07T01:57:00.928Z,10.55
2023-01-07T01:58:01.614Z,10.56
2023-01-07T01:59:02.323Z,10.55
2023-01-07T02:00:03.050Z,10.51
2023-01-07T02:01:03.830Z,10.52
2023-01-07T02:02:04.758Z,10.51
2023-01-07T02:03:05.598Z,10.55
2023-01-07T02:04:06.219Z,10.56
2023-01-07T02:05:06.959Z,10.60
2023-01-07T02:06:07.623Z,10.61
2023-01-07T02:07:08.330Z,10.60
2023-01-07T02:08:09.052Z,10.60
2023-01-07T02:09:09.739Z,10.59
2023-01-07T02:10:10.894Z,10.56
2023-01-07T02:11:11.091Z,10.52
2023-01-07T02:12:11.810Z,10.45
2023-01-07T02:13:12.507Z,10.48
2023-01-07T02:14:13.210Z,10.51
2023-01-07T02:15:13.950Z,10.51
2023-01-07T02:16:14.770Z,10.53
2023-01-07T02:17:15.429Z,10.56
2023-01-07T02:18:16.245Z,10.55
2023-01-07T02:19:16.873Z,10.53
2023-01-07T02:20:17.908Z,10.56
2023-01-07T02:21:18.558Z,10.59
2023-01-07T02:22:19.267Z,10.56
2023-01-07T02:23:19.975Z,10.55
2023-01-07T02:24:20.702Z,10.56
2023-01-07T02:25:21.901Z,10.52
2023-01-07T02:26:22.092Z,10.53
2023-01-07T02:27:22.802Z,10.55
2023-01-07T02:28:23.506Z,10.59
2023-01-07T02:29:24.209Z,10.56
2023-01-07T02:30:24.946Z,10.55
2023-01-07T02:31:25.692Z,10.56
2023-01-07T02:32:26.355Z,10.56
2023-01-07T02:33:27.178Z,10.56
2023-01-07T02:34:27.808Z,10.51
2023-01-07T02:35:28.546Z,10.52
2023-01-07T02:36:29.244Z,10.59
2023-01-07T02:37:29.954Z,10.59
2023-01-07T02:38:30.655Z,10.63
2023-01-07T02:39:31.357Z,10.61
2023-01-07T02:40:32.084Z,10.64
2023-01-07T02:41:32.777Z,10.63
2023-01-07T02:42:33.495Z,10.61
2023-01-07T02:43:34.206Z,10.61
2023-01-07T02:44:34.911Z,10.59
2023-01-07T02:45:35.659Z,10.56
2023-01-07T02:46:36.328Z,10.61
2023-01-07T02:47:37.044Z,10.63
2023-01-07T02:48:37.887Z,10.61
2023-01-07T02:49:38.515Z,10.55
2023-01-07T02:50:39.246Z,10.52
2023-01-07T02:51:39.904Z,10.51
2023-01-07T02:52:40.613Z,10.56
2023-01-07T02:53:41.321Z,10.61
2023-01-07T02:54:42.044Z,10.60
2023-01-07T02:55:42.756Z,10.60
2023-01-07T02:56:43.459Z,10.59
2023-01-07T02:57:44.160Z,10.53
2023-01-07T02:58:44.864Z,10.55
2023-01-07T02:59:46.360Z,10.53
2023-01-07T03:00:46.589Z,10.47
2023-01-07T03:01:47.365Z,10.45
2023-01-07T03:02:48.035Z,10.55
2023-01-07T03:03:48.916Z,10.55
2023-01-07T03:04:49.561Z,10.52
2023-01-07T03:05:50.411Z,10.53
2023-01-07T03:06:51.112Z,10.53
2023-01-07T03:07:51.831Z,10.52
2023-01-07T03:08:52.533Z,10.51
2023-01-07T03:09:53.233Z,10.52
2023-01-07T03:10:53.946Z,10.48
2023-01-07T03:11:54.671Z,10.48
2023-01-07T03:12:55.389Z,10.47
2023-01-07T03:13:56.068Z,10.48
2023-01-07T03:14:56.825Z,10.51
2023-01-07T03:15:57.579Z,10.53
2023-01-07T03:16:58.293Z,10.52
2023-01-07T03:17:58.994Z,10.51
2023-01-07T03:18:59.824Z,10.52
2023-01-07T03:20:00.454Z,10.53
2023-01-07T03:21:01.186Z,10.52
2023-01-07T03:22:01.862Z,10.48
2023-01-07T03:23:02.570Z,10.47
2023-01-07T03:24:03.283Z,10.51
2023-01-07T03:25:03.980Z,10.52
2023-01-07T03:26:04.701Z,10.51
2023-01-07T03:27:05.400Z,10.45
2023-01-07T03:28:06.111Z,10.45
2023-01-07T03:29:06.813Z,10.45
2023-01-07T03:30:07.517Z,10.47
2023-01-07T03:31:08.418Z,10.45
2023-01-07T03:32:09.124Z,10.44
2023-01-07T03:33:09.832Z,10.44
2023-01-07T03:34:10.650Z,10.42
2023-01-07T03:35:11.286Z,10.45
2023-01-07T03:36:12.018Z,10.47
2023-01-07T03:37:12.735Z,10.45
2023-01-07T03:38:13.443Z,10.44
2023-01-07T03:39:14.147Z,10.44
2023-01-07T03:40:14.866Z,10.45
2023-01-07T03:41:15.904Z,10.51
2023-01-07T03:42:16.135Z,10.51
2023-01-07T03:43:16.837Z,10.48
2023-01-07T03:44:17.546Z,10.48
2023-01-07T03:45:18.260Z,10.44
2023-01-07T03:46:18.969Z,10.45
2023-01-07T03:47:19.687Z,10.44
2023-01-07T03:48:20.385Z,10.51
2023-01-07T03:49:21.233Z,10.53
2023-01-07T03:50:21.875Z,10.52
2023-01-07T03:51:22.614Z,10.51
2023-01-07T03:52:23.271Z,10.48
2023-01-07T03:53:23.976Z,10.47
2023-01-07T03:54:24.688Z,10.47
2023-01-07T03:55:25.391Z,10.52
2023-01-07T03:56:26.137Z,10.48
2023-01-07T03:57:26.860Z,10.51
2023-01-07T03:58:27.558Z,10.52
2023-01-07T03:59:28.266Z,10.55
2023-01-07T04:00:28.973Z,10.55
2023-01-07T04:01:29.745Z,10.60
2023-01-07T04:02:30.427Z,10.59
2023-01-07T04:03:31.135Z,10.61
2023-01-07T04:04:32.017Z,10.61
2023-01-07T04:05:32.685Z,10.60
2023-01-07T04:06:33.416Z,10.56
2023-01-07T04:07:34.082Z,10.55
2023-01-07T04:08:34.787Z,10.52
2023-01-07T04:09:35.501Z,10.55
2023-01-07T04:10:36.197Z,10.60
2023-01-07T04:11:37.405Z,10.60
2023-01-07T04:12:37.612Z,10.55
2023-01-07T04:13:38.318Z,10.55
2023-01-07T04:14:39.020Z,10.53
2023-01-07T04:15:39.725Z,10.53
2023-01-07T04:16:40.976Z,10.51
2023-01-07T04:17:41.169Z,10.52
2023-01-07T04:18:41.870Z,10.53
2023-01-07T04:19:42.701Z,10.61
2023-01-07T04:20:43.323Z,10.60
2023-01-07T04:21:44.057Z,10.52
2023-01-07T04:22:44.757Z,10.51
2023-01-07T04:23:45.450Z,10.48
2023-01-07T04:24:46.158Z,10.44
2023-01-07T04:25:46.864Z,10.42
2023-01-07T04:26:47.577Z,10.41
2023-01-07T04:27:48.303Z,10.40
2023-01-07T04:28:49.009Z,10.38
2023-01-07T04:29:49.710Z,10.40
2023-01-07T04:30:50.533Z,10.38
2023-01-07T04:31:51.428Z,10.40
2023-01-07T04:32:52.157Z,10.41
2023-01-07T04:33:52.845Z,10.38
2023-01-07T04:34:53.668Z,10.34
2023-01-07T04:35:54.304Z,10.33
2023-01-07T04:36:55.034Z,10.44
2023-01-07T04:37:55.722Z,10.44
2023-01-07T04:38:56.420Z,10.44
2023-01-07T04:39:57.127Z,10.41
2023-01-07T04:40:57.831Z,10.42
2023-01-07T04:41:58.543Z,10.42
2023-01-07T04:42:59.245Z,10.40
2023-01-07T04:43:59.959Z,10.36
2023-01-07T04:45:00.651Z,10.36
2023-01-07T04:46:01.455Z,10.33
2023-01-07T04:47:02.143Z,10.32
2023-01-07T04:48:02.855Z,10.27
2023-01-07T04:49:03.562Z,10.26
2023-01-07T04:50:04.379Z,10.27
2023-01-07T04:51:05.007Z,10.25
2023-01-07T04:52:05.746Z,10.23
2023-01-07T04:53:06.416Z,10.29
2023-01-07T04:54:07.120Z,10.30
2023-01-07T04:55:07.825Z,10.33
2023-01-07T04:56:08.529Z,10.32
2023-01-07T04:57:09.246Z,10.29
2023-01-07T04:58:09.953Z,10.29
2023-01-07T04:59:10.665Z,10.29
2023-01-07T05:00:11.361Z,10.27
2023-01-07T05:01:12.235Z,10.27
2023-01-07T05:02:13.086Z,10.23
2023-01-07T05:03:13.748Z,10.26
2023-01-07T05:04:14.500Z,10.25
2023-01-07T05:05:15.312Z,10.22
2023-01-07T05:06:15.949Z,10.18
2023-01-07T05:07:16.682Z,10.14
2023-01-07T05:08:17.364Z,10.12
2023-01-07T05:09:18.074Z,10.07
2023-01-07T05:10:18.781Z,10.09
2023-01-07T05:11:19.485Z,10.05
2023-01-07T05:12:20.196Z,10.05
2023-01-07T05:13:20.936Z,10.02
2023-01-07T05:14:21.616Z,10.04
2023-01-07T05:15:22.321Z,10.01
2023-01-07T05:16:23.069Z,10.02
2023-01-07T05:17:23.749Z,9.99
2023-01-07T05:18:24.446Z,10.07
2023-01-07T05:19:25.152Z,10.11
2023-01-07T05:20:25.976Z,10.11
2023-01-07T05:21:26.612Z,10.09
2023-01-07T05:22:27.358Z,10.08
2023-01-07T05:23:28.032Z,10.08
2023-01-07T05:24:28.724Z,10.05
2023-01-07T05:25:29.430Z,10.09
2023-01-07T05:26:30.145Z,10.15
2023-01-07T05:27:30.849Z,10.11
2023-01-07T05:28:31.554Z,10.09
2023-01-07T05:29:32.266Z,10.07
2023-01-07T05:30:33.017Z,10.08
2023-01-07T05:31:33.704Z,10.08
2023-01-07T05:32:34.404Z,10.09
2023-01-07T05:33:35.115Z,10.04
2023-01-07T05:34:35.815Z,9.99
2023-01-07T05:35:36.650Z,9.96
2023-01-07T05:36:37.275Z,9.96
2023-01-07T05:37:38.010Z,9.94
2023-01-07T05:38:38.673Z,9.91
2023-01-07T05:39:39.380Z,9.87
2023-01-07T05:40:40.088Z,9.84
2023-01-07T05:41:40.788Z,9.93
2023-01-07T05:42:41.512Z,9.97
2023-01-07T05:43:42.213Z,9.96
2023-01-07T05:44:42.919Z,9.93
2023-01-07T05:45:43.622Z,9.93
2023-01-07T05:46:44.337Z,9.87
2023-01-07T05:47:45.422Z,9.83
2023-01-07T05:48:45.632Z,9.79
2023-01-07T05:49:46.327Z,9.81
2023-01-07T05:50:47.147Z,9.81
2023-01-07T05:51:47.774Z,9.79
2023-01-07T05:52:48.511Z,9.83
2023-01-07T05:53:49.193Z,9.84
2023-01-07T05:54:49.895Z,9.83
2023-01-07T05:55:50.603Z,9.81
2023-01-07T05:56:51.315Z,9.83
2023-01-07T05:57:52.422Z,9.79
2023-01-07T05:58:52.619Z,9.81
2023-01-07T05:59:53.332Z,9.83
2023-01-07T06:00:54.138Z,9.90
2023-01-07T06:01:54.768Z,9.90
2023-01-07T06:02:55.493Z,9.87
2023-01-07T06:03:56.262Z,9.83
2023-01-07T06:04:57.074Z,9.81
2023-01-07T06:05:57.862Z,9.78
2023-01-07T06:06:58.493Z,9.75
2023-01-07T06:07:59.224Z,9.74
2023-01-07T06:08:59.912Z,9.72
2023-01-07T06:10:02.806Z,9.71
2023-01-07T06:11:01.257Z,9.68
2023-01-07T06:12:01.968Z,9.72
2023-01-07T06:13:02.680Z,9.74
2023-01-07T06:14:03.388Z,9.75
2023-01-07T06:15:04.083Z,9.68
2023-01-07T06:16:04.826Z,9.65
2023-01-07T06:17:05.496Z,9.72
2023-01-07T06:18:06.212Z,9.74
2023-01-07T06:19:06.909Z,9.68
2023-01-07T06:20:07.611Z,9.68
2023-01-07T06:21:08.453Z,9.68
2023-01-07T06:22:09.085Z,9.65
2023-01-07T06:23:09.817Z,9.66
2023-01-07T06:24:10.474Z,9.66
2023-01-07T06:25:11.177Z,9.69
2023-01-07T06:26:11.884Z,9.71
2023-01-07T06:27:12.754Z,9.72
2023-01-07T06:28:13.465Z,9.71
2023-01-07T06:29:14.187Z,9.74
2023-01-07T06:30:14.881Z,9.71
2023-01-07T06:31:15.644Z,9.71
2023-01-07T06:32:16.297Z,9.74
2023-01-07T06:33:17.454Z,9.74
2023-01-07T06:34:17.646Z,9.71
2023-01-07T06:35:18.361Z,9.74
2023-01-07T06:36:19.644Z,9.83
2023-01-07T06:37:19.779Z,9.84
2023-01-07T06:38:20.511Z,9.86
2023-01-07T06:39:21.159Z,9.86
2023-01-07T06:40:21.859Z,9.84
2023-01-07T06:41:22.583Z,9.94
2023-01-07T06:42:23.266Z,9.93
2023-01-07T06:43:23.984Z,9.93
2023-01-07T06:44:24.697Z,9.93
2023-01-07T06:45:25.407Z,9.90
2023-01-07T06:46:26.179Z,9.91
2023-01-07T06:47:26.827Z,9.89
2023-01-07T06:48:27.541Z,9.90
2023-01-07T06:49:28.256Z,9.93
2023-01-07T06:50:28.948Z,9.96
2023-01-07T06:51:29.775Z,9.99
2023-01-07T06:52:30.405Z,9.99
2023-01-07T06:53:31.129Z,9.99
2023-01-07T06:54:31.777Z,9.96
2023-01-07T06:55:32.477Z,9.99
2023-01-07T06:56:33.182Z,9.99
2023-01-07T06:57:33.885Z,9.99
2023-01-07T06:58:34.597Z,9.97
2023-01-07T06:59:35.308Z,9.97
2023-01-07T07:00:36.004Z,10.01
2023-01-07T07:01:36.852Z,10.01
2023-01-07T07:02:37.616Z,9.99
2023-01-07T07:03:38.433Z,9.99
2023-01-07T07:04:39.136Z,9.97
2023-01-07T07:05:39.840Z,10.01
2023-01-07T07:06:40.670Z,9.97
2023-01-07T07:07:41.309Z,10.01
2023-01-07T07:08:42.039Z,10.07
2023-01-07T07:09:42.711Z,10.11
2023-01-07T07:10:43.423Z,10.15
2023-01-07T07:11:44.119Z,10.11
2023-01-07T07:12:44.818Z,10.17
2023-01-07T07:13:45.925Z,10.15
2023-01-07T07:14:46.136Z,10.20
2023-01-07T07:15:46.865Z,10.15
2023-01-07T07:16:47.545Z,10.15
2023-01-07T07:17:48.252Z,10.20
2023-01-07T07:18:48.981Z,10.17
2023-01-07T07:19:49.677Z,10.18
2023-01-07T07:20:50.379Z,10.17
2023-01-07T07:21:51.235Z,10.12
2023-01-07T07:22:51.876Z,10.14
2023-01-07T07:23:52.603Z,10.17
2023-01-07T07:24:53.279Z,10.18
2023-01-07T07:25:53.979Z,10.22
2023-01-07T07:26:54.694Z,10.25
2023-01-07T07:27:55.386Z,10.32
2023-01-07T07:28:56.099Z,10.29
2023-01-07T07:29:56.802Z,10.23
2023-01-07T07:30:57.563Z,10.23
2023-01-07T07:31:58.224Z,10.22
2023-01-07T07:32:58.916Z,10.27
2023-01-07T07:33:59.651Z,10.33
2023-01-07T07:35:00.355Z,10.36
2023-01-07T07:36:01.061Z,10.40
2023-01-07T07:37:01.877Z,10.40
2023-01-07T07:38:02.502Z,10.40
2023-01-07T07:39:03.241Z,10.40
2023-01-07T07:40:03.956Z,10.32
2023-01-07T07:41:04.647Z,10.32
2023-01-07T07:42:05.363Z,10.32
2023-01-07T07:43:10.357Z,10.32
2023-01-07T07:44:07.927Z,10.41
2023-01-07T07:45:07.634Z,10.44
2023-01-07T07:46:08.389Z,10.45
2023-01-07T07:47:09.046Z,10.42
2023-01-07T07:48:09.756Z,10.34
2023-01-07T07:49:10.465Z,10.30
2023-01-07T07:50:11.171Z,10.33
2023-01-07T07:51:11.876Z,10.30
2023-01-07T07:52:12.698Z,10.33
2023-01-07T07:53:13.326Z,10.32
2023-01-07T07:54:14.057Z,10.30
2023-01-07T07:55:20.412Z,10.30
2023-01-07T07:56:16.303Z,10.32
2023-01-07T07:57:16.012Z,10.36
2023-01-07T07:58:16.721Z,10.33
2023-01-07T07:59:17.940Z,10.40
2023-01-07T08:00:18.138Z,10.41
2023-01-07T08:01:18.892Z,10.41
2023-01-07T08:02:19.610Z,10.40
2023-01-07T08:03:20.325Z,10.36
2023-01-07T08:04:21.013Z,10.44
2023-01-07T08:05:21.727Z,10.45
2023-01-07T08:06:22.426Z,10.42
2023-01-07T08:07:32.533Z,10.38
2023-01-07T08:08:24.739Z,10.40
2023-01-07T08:09:24.472Z,10.41
2023-01-07T08:10:25.137Z,10.42
2023-01-07T08:11:25.843Z,10.45
2023-01-07T08:12:26.563Z,10.47
2023-01-07T08:13:27.255Z,10.47
2023-01-07T08:14:27.969Z,10.45
2023-01-07T08:15:28.678Z,10.42
2023-01-07T08:16:29.480Z,10.42
2023-01-07T08:17:30.149Z,10.47
2023-01-07T08:18:30.851Z,10.47
2023-01-07T08:19:31.570Z,10.47
2023-01-07T08:20:32.284Z,10.48
2023-01-07T08:21:32.982Z,10.47
2023-01-07T08:22:33.797Z,10.47
2023-01-07T08:23:34.429Z,10.44
2023-01-07T08:24:35.156Z,10.48
2023-01-07T08:25:35.832Z,10.44
2023-01-07T08:26:36.529Z,10.47
2023-01-07T08:27:37.239Z,10.45
2023-01-07T08:28:37.946Z,10.45
2023-01-07T08:29:38.932Z,10.45
2023-01-07T08:30:39.637Z,10.48
2023-01-07T08:31:40.387Z,10.47
2023-01-07T08:32:41.061Z,10.52
2023-01-07T08:33:41.759Z,10.55
2023-01-07T08:34:42.511Z,10.53
2023-01-07T08:35:43.197Z,10.52
2023-01-07T08:36:43.904Z,10.51
2023-01-07T08:37:44.729Z,10.48
2023-01-07T08:38:45.358Z,10.47
2023-01-07T08:39:46.469Z,10.51
2023-01-07T08:40:46.623Z,10.47
2023-01-07T08:41:47.349Z,10.48
2023-01-07T08:42:48.045Z,10.48
2023-01-07T08:43:48.750Z,10.48
2023-01-07T08:44:49.472Z,10.48
2023-01-07T08:45:50.175Z,10.51
2023-01-07T08:46:50.907Z,10.53
2023-01-07T08:47:51.608Z,10.53
2023-01-07T08:48:52.310Z,10.53
2023-01-07T08:49:53.008Z,10.52
2023-01-07T08:50:53.715Z,10.56
2023-01-07T08:51:54.423Z,10.59
2023-01-07T08:52:55.248Z,10.59
2023-01-07T08:53:55.870Z,10.59
2023-01-07T08:54:56.607Z,10.60
2023-01-07T08:55:57.252Z,10.64
2023-01-07T08:56:57.953Z,10.63
2023-01-07T08:57:58.664Z,10.60
2023-01-07T08:58:59.369Z,10.61
2023-01-07T09:00:00.101Z,10.61
2023-01-07T09:01:00.913Z,10.59
2023-01-07T09:02:01.783Z,10.53
2023-01-07T09:03:02.510Z,10.48
2023-01-07T09:04:03.219Z,10.47
2023-01-07T09:05:03.937Z,10.51
2023-01-07T09:06:04.649Z,10.52
2023-01-07T09:07:05.445Z,10.53
2023-01-07T09:08:06.266Z,10.55
2023-01-07T09:09:06.893Z,10.53
2023-01-07T09:10:07.973Z,10.52
2023-01-07T09:11:08.131Z,10.52
2023-01-07T09:12:10.833Z,10.52
2023-01-07T09:13:09.726Z,10.51
2023-01-07T09:14:10.437Z,10.52
2023-01-07T09:15:11.435Z,10.47
2023-01-07T09:16:11.718Z,10.52
2023-01-07T09:17:12.392Z,10.56
2023-01-07T09:18:13.127Z,10.56
2023-01-07T09:19:13.821Z,10.60
2023-01-07T09:20:14.545Z,10.60
2023-01-07T09:21:15.243Z,10.60
2023-01-07T09:22:15.949Z,10.52
2023-01-07T09:23:16.789Z,10.53
2023-01-07T09:24:17.420Z,10.53
2023-01-07T09:25:18.151Z,10.52
2023-01-07T09:26:18.821Z,10.48
2023-01-07T09:27:19.539Z,10.51
2023-01-07T09:28:20.243Z,10.48
2023-01-07T09:29:20.946Z,10.52
2023-01-07T09:30:21.937Z,10.51
2023-01-07T09:31:22.197Z,10.51
2023-01-07T09:32:22.820Z,10.51
2023-01-07T09:33:23.532Z,10.48
2023-01-07T09:34:24.233Z,10.51
2023-01-07T09:35:25.480Z,10.51
2023-01-07T09:36:25.670Z,10.52
2023-01-07T09:37:26.384Z,10.53
2023-01-07T09:38:27.201Z,10.51
2023-01-07T09:39:27.833Z,10.52
2023-01-07T09:40:28.569Z,10.51
2023-01-07T09:41:29.255Z,10.48
2023-01-07T09:42:30.184Z,10.51
2023-01-07T09:44:00.094Z,10.48
2023-01-07T09:44:32.081Z,10.52
2023-01-07T09:45:31.844Z,10.51
2023-01-07T09:46:32.543Z,10.51
2023-01-07T09:47:33.225Z,10.55
2023-01-07T09:48:33.935Z,10.59
2023-01-07T09:49:34.639Z,10.56
2023-01-07T09:50:35.361Z,10.60
2023-01-07T09:51:36.055Z,10.56
2023-01-07T09:52:36.765Z,10.59
2023-01-07T09:53:37.583Z,10.59
2023-01-07T09:54:38.243Z,10.59
2023-01-07T09:55:38.951Z,10.59
2023-01-07T09:56:40.536Z,10.56
2023-01-07T09:57:40.242Z,10.55
2023-01-07T09:58:40.952Z,10.56
2023-01-07T09:59:41.659Z,10.56
2023-01-07T10:00:42.440Z,10.55
2023-01-07T10:01:43.172Z,10.56
2023-01-07T10:02:43.945Z,10.53
2023-01-07T10:03:44.643Z,10.53
2023-01-07T10:04:45.310Z,10.55
2023-01-07T10:05:46.444Z,10.55
2023-01-07T10:06:46.660Z,10.56
2023-01-07T10:07:47.371Z,10.60
2023-01-07T10:08:48.178Z,10.60
2023-01-07T10:09:48.815Z,10.63
2023-01-07T10:10:49.542Z,10.64
2023-01-07T10:11:50.225Z,10.66
2023-01-07T10:12:50.933Z,10.68
2023-01-07T10:13:51.635Z,10.70
2023-01-07T10:14:52.351Z,10.73
2023-01-07T10:15:53.060Z,10.73
2023-01-07T10:16:53.793Z,10.76
2023-01-07T10:17:54.482Z,10.81
2023-01-07T10:18:55.187Z,10.84
2023-01-07T10:19:55.896Z,10.89
2023-01-07T10:20:56.614Z,10.94
2023-01-07T10:21:57.319Z,10.97
2023-01-07T10:22:58.018Z,11.02
2023-01-07T10:23:58.838Z,11.11
2023-01-07T10:24:59.480Z,11.17
2023-01-07T10:26:00.200Z,11.25
2023-01-07T10:27:00.858Z,11.24
2023-01-07T10:28:01.564Z,11.28
2023-01-07T10:29:02.269Z,11.28
2023-01-07T10:30:02.988Z,11.35
2023-01-07T10:31:03.693Z,11.36
2023-01-07T10:32:04.398Z,11.37
2023-01-07T10:33:05.104Z,11.37
2023-01-07T10:34:05.813Z,11.42
2023-01-07T10:35:06.520Z,11.47
2023-01-07T10:36:07.466Z,11.51
2023-01-07T10:37:08.169Z,11.54
2023-01-07T10:38:08.877Z,11.57
2023-01-07T10:39:09.715Z,11.62
2023-01-07T10:40:10.354Z,11.67
2023-01-07T10:41:11.465Z,11.70
2023-01-07T10:42:11.632Z,11.78
2023-01-07T10:43:12.349Z,11.96
2023-01-07T10:44:13.044Z,12.09
2023-01-07T10:45:13.783Z,12.05
2023-01-07T10:46:14.981Z,12.05
2023-01-07T10:47:15.153Z,12.13
2023-01-07T10:48:15.867Z,12.10
2023-01-07T10:49:16.599Z,12.02
2023-01-07T10:50:17.313Z,12.14
2023-01-07T10:51:18.449Z,12.14
2023-01-07T10:52:18.660Z,12.14
2023-01-07T10:53:19.490Z,12.07
2023-01-07T10:54:20.233Z,12.14
2023-01-07T10:55:20.871Z,12.07
2023-01-07T10:56:21.589Z,11.98
2023-01-07T10:57:22.224Z,11.94
2023-01-07T10:58:22.932Z,11.91
2023-01-07T10:59:23.631Z,11.99
2023-01-07T11:00:24.341Z,12.05
2023-01-07T11:01:25.218Z,12.10
2023-01-07T11:02:26.183Z,12.24
2023-01-07T11:03:26.886Z,12.28
2023-01-07T11:04:27.592Z,12.28
2023-01-07T11:05:28.294Z,12.37
2023-01-07T11:06:29.021Z,12.29
2023-01-07T11:07:29.731Z,12.39
2023-01-07T11:08:30.431Z,12.38
2023-01-07T11:09:31.253Z,12.38
2023-01-07T11:10:31.891Z,12.32
2023-01-07T11:11:32.617Z,12.38
2023-01-07T11:12:33.258Z,12.42
2023-01-07T11:13:33.950Z,12.45
2023-01-07T11:14:34.661Z,12.47
2023-01-07T11:15:35.372Z,12.62
2023-01-07T11:16:36.102Z,12.62
2023-01-07T11:17:36.805Z,12.68
2023-01-07T11:18:37.488Z,12.64
2023-01-07T11:19:38.194Z,12.64
2023-01-07T11:20:38.900Z,12.60
2023-01-07T11:21:44.012Z,12.60
2023-01-07T11:22:40.142Z,12.53
2023-01-07T11:23:42.794Z,12.60
2023-01-07T11:24:41.441Z,12.78
2023-01-07T11:25:42.079Z,12.90
2023-01-07T11:26:42.971Z,13.12
2023-01-07T11:27:43.651Z,13.17
2023-01-07T11:28:44.322Z,13.05
2023-01-07T11:29:45.031Z,12.92
2023-01-07T11:30:45.729Z,12.92
2023-01-07T11:31:46.470Z,12.89
2023-01-07T11:32:47.170Z,12.83
2023-01-07T11:34:01.700Z,12.62
2023-01-07T11:34:49.487Z,12.72
2023-01-07T11:35:49.178Z,12.87
2023-01-07T11:36:49.930Z,12.67
2023-01-07T11:37:50.643Z,12.56
2023-01-07T11:38:51.319Z,12.64
2023-01-07T11:39:52.154Z,12.60
2023-01-07T11:40:52.780Z,12.56
2023-01-07T11:41:53.514Z,12.60
2023-01-07T11:42:54.177Z,12.64
2023-01-07T11:43:54.882Z,12.47
2023-01-07T11:44:55.588Z,12.56
2023-01-07T11:46:19.877Z,12.57
2023-01-07T11:46:58.073Z,12.62
2023-01-07T11:47:57.744Z,12.90
2023-01-07T11:48:58.439Z,13.00
2023-01-07T11:49:59.143Z,12.93
2023-01-07T11:50:59.863Z,12.92
2023-01-07T11:52:00.564Z,12.83
2023-01-07T11:53:01.274Z,12.83
2023-01-07T11:54:01.975Z,12.83
2023-01-07T11:55:02.804Z,12.82
2023-01-07T11:56:03.458Z,12.89
2023-01-07T11:57:04.194Z,12.93
2023-01-07T11:58:28.774Z,12.89
2023-01-07T11:59:06.441Z,12.87
2023-01-07T12:00:06.156Z,12.97
2023-01-07T12:01:06.896Z,12.93
2023-01-07T12:02:07.692Z,13.01
2023-01-07T12:03:08.447Z,12.93
2023-01-07T12:04:09.085Z,12.95
2023-01-07T12:05:09.790Z,12.71
2023-01-07T12:06:10.499Z,12.82
2023-01-07T12:07:11.213Z,13.00
2023-01-07T12:08:11.911Z,13.11
2023-01-07T12:09:12.620Z,13.12
2023-01-07T12:10:13.448Z,13.14
2023-01-07T12:11:14.074Z,13.05
2023-01-07T12:12:14.806Z,13.10
2023-01-07T12:13:15.496Z,12.89
2023-01-07T12:14:16.202Z,12.97
2023-01-07T12:15:16.909Z,12.89
2023-01-07T12:16:17.671Z,12.67
2023-01-07T12:17:18.475Z,12.50
2023-01-07T12:18:19.168Z,12.53
2023-01-07T12:19:19.874Z,12.64
2023-01-07T12:20:20.583Z,12.57
2023-01-07T12:21:21.292Z,12.42
2023-01-07T12:22:22.461Z,12.39
2023-01-07T12:23:22.699Z,12.45
2023-01-07T12:24:23.385Z,12.45
2023-01-07T12:25:24.187Z,12.47
2023-01-07T12:26:24.841Z,12.59
2023-01-07T12:27:25.545Z,12.56
2023-01-07T12:28:26.225Z,12.53
2023-01-07T12:29:26.972Z,12.65
2023-01-07T12:30:27.648Z,12.71
2023-01-07T12:31:28.402Z,12.77
2023-01-07T12:32:29.077Z,12.65
2023-01-07T12:33:29.781Z,12.70
2023-01-07T12:34:30.514Z,12.65
2023-01-07T12:35:31.220Z,12.65
2023-01-07T12:36:31.902Z,12.56
2023-01-07T12:37:32.643Z,12.53
2023-01-07T12:38:33.343Z,12.71
2023-01-07T12:39:34.109Z,12.90
2023-01-07T12:40:34.863Z,12.93
2023-01-07T12:41:35.493Z,12.97
2023-01-07T12:42:36.227Z,12.93
2023-01-07T12:43:36.900Z,13.04
2023-01-07T12:44:37.621Z,13.07
2023-01-07T12:45:38.309Z,13.15
2023-01-07T12:46:39.148Z,13.12
2023-01-07T12:47:39.822Z,13.01
2023-01-07T12:48:40.430Z,13.05
2023-01-07T12:49:41.129Z,13.11
2023-01-07T12:50:41.833Z,12.79
2023-01-07T12:51:42.549Z,12.74
2023-01-07T12:52:43.247Z,12.87
2023-01-07T12:53:43.958Z,13.05
2023-01-07T12:54:44.656Z,13.04
2023-01-07T12:55:45.472Z,13.23
2023-01-07T12:56:46.103Z,13.08
2023-01-07T12:57:46.979Z,12.75
2023-01-07T12:58:47.642Z,12.68
2023-01-07T12:59:48.348Z,12.71
2023-01-07T13:00:49.056Z,12.90
2023-01-07T13:01:49.899Z,13.00
2023-01-07T13:02:50.576Z,12.89
2023-01-07T13:03:51.336Z,12.75
2023-01-07T13:04:52.113Z,12.96